Time;durP1;ratioP1;P1;durP2;ratioP2;P2;SDS_P1;SDS_P2;PMS_P1;PMS_P2;Temp;Humidity;BMP_temperature;BMP_pressure;BME280_temperature;BME280_humidity;BME280_pressure;Samples;Min_cycle;Max_cycle;Signal;HPM_P1;HPM_P2
2023/05/27 00:02:16;;;;;;;10.30;2.50;;;9.50;99.90;;;;;;6269679;22;20016;-67
2023/05/27 00:04:42;;;;;;;6.72;2.67;;;9.50;99.90;;;;;;6272382;22;20443;-67
2023/05/27 00:07:08;;;;;;;15.90;4.47;;;9.50;99.90;;;;;;6269940;22;20019;-68
2023/05/27 00:09:33;;;;;;;11.60;3.28;;;9.40;99.90;;;;;;6269492;22;20022;-68
2023/05/27 00:12:00;;;;;;;9.73;2.97;;;9.40;99.90;;;;;;6269347;22;20018;-68
2023/05/27 00:14:26;;;;;;;10.55;3.05;;;9.40;99.90;;;;;;6269090;22;20020;-68
2023/05/27 00:16:51;;;;;;;8.25;3.15;;;9.40;99.90;;;;;;6271524;22;20041;-68
2023/05/27 00:19:17;;;;;;;8.40;3.40;;;9.40;99.90;;;;;;6271427;22;20068;-68
2023/05/27 00:21:43;;;;;;;11.55;2.97;;;9.40;99.90;;;;;;6271140;22;20023;-67
2023/05/27 00:24:10;;;;;;;8.30;3.10;;;9.30;99.90;;;;;;6271178;22;20011;-69
2023/05/27 00:26:35;;;;;;;8.02;2.97;;;9.30;99.90;;;;;;6269456;22;20442;-68
2023/05/27 00:29:01;;;;;;;12.10;3.63;;;9.30;99.90;;;;;;6269109;22;20095;-68
2023/05/27 00:31:27;;;;;;;11.65;3.40;;;9.30;99.90;;;;;;6269241;22;20110;-68
2023/05/27 00:33:53;;;;;;;7.60;2.97;;;9.20;99.90;;;;;;6269158;22;20174;-68
2023/05/27 00:36:18;;;;;;;10.13;3.03;;;9.30;99.90;;;;;;6271250;22;20012;-68
2023/05/27 00:38:44;;;;;;;9.57;3.05;;;9.30;99.90;;;;;;6271031;22;20016;-69
2023/05/27 00:41:13;;;;;;;8.68;3.72;;;9.20;99.90;;;;;;6271287;22;20021;-68
2023/05/27 00:43:39;;;;;;;8.82;3.00;;;9.10;99.90;;;;;;6268922;22;20023;-69
2023/05/27 00:46:05;;;;;;;8.02;2.92;;;9.20;99.90;;;;;;6269283;22;20031;-68
2023/05/27 00:48:31;;;;;;;7.15;3.15;;;9.10;99.90;;;;;;6269289;22;20046;-68
2023/05/27 00:50:57;;;;;;;14.25;3.53;;;9.10;99.90;;;;;;6271041;22;20050;-68
2023/05/27 00:53:24;;;;;;;12.23;3.47;;;9.00;99.90;;;;;;6270370;22;20082;-68
2023/05/27 00:55:53;;;;;;;12.07;3.70;;;9.00;99.90;;;;;;6272737;22;20049;-68
2023/05/27 00:58:21;;;;;;;17.38;4.35;;;8.90;99.90;;;;;;6272463;22;20016;-68
2023/05/27 01:00:48;;;;;;;11.77;3.90;;;8.90;99.90;;;;;;6272699;22;20023;-68
2023/05/27 01:03:15;;;;;;;10.43;3.53;;;8.90;99.90;;;;;;6271064;22;20454;-68
2023/05/27 01:05:41;;;;;;;9.02;3.55;;;8.90;99.90;;;;;;6271369;22;20053;-68
2023/05/27 01:08:11;;;;;;;8.68;3.35;;;8.80;99.90;;;;;;6245559;22;20015;-68
2023/05/27 01:10:52;;;;;;;7.50;3.03;;;8.80;99.90;;;;;;6273248;22;20023;-68
2023/05/27 01:13:35;;;;;;;10.27;3.60;;;8.70;99.90;;;;;;6273205;22;20020;-68
2023/05/27 01:16:09;;;;;;;5.15;2.95;;;8.60;99.90;;;;;;6271165;22;20058;-68
2023/05/27 01:18:36;;;;;;;7.65;3.92;;;8.70;99.90;;;;;;6245389;22;20428;-68
2023/05/27 01:21:09;;;;;;;7.68;2.45;;;8.60;99.90;;;;;;6272742;22;20102;-68
2023/05/27 01:23:38;;;;;;;13.55;3.45;;;8.60;99.90;;;;;;6272847;22;20019;-68
2023/05/27 01:26:04;;;;;;;9.52;3.30;;;8.60;99.90;;;;;;6244853;22;20015;-68
2023/05/27 01:28:30;;;;;;;13.32;3.97;;;8.60;99.90;;;;;;6270972;22;20355;-69
2023/05/27 01:31:04;;;;;;;9.05;3.90;;;8.50;99.90;;;;;;6270387;22;20099;-68
2023/05/27 01:33:34;;;;;;;7.07;3.17;;;8.50;99.90;;;;;;6270734;22;20467;-68
2023/05/27 01:36:07;;;;;;;9.93;3.70;;;8.50;99.90;;;;;;6271844;22;20042;-68
2023/05/27 01:38:34;;;;;;;13.77;4.45;;;8.50;99.90;;;;;;6272785;22;20573;-68
2023/05/27 01:41:01;;;;;;;12.23;3.75;;;8.60;99.90;;;;;;6245135;22;20070;-69
2023/05/27 01:43:27;;;;;;;7.65;3.33;;;8.60;99.90;;;;;;6270433;22;20023;-69
2023/05/27 01:45:53;;;;;;;14.38;4.20;;;8.60;99.90;;;;;;6272669;22;20008;-68
2023/05/27 01:48:19;;;;;;;13.35;4.38;;;8.60;99.90;;;;;;6272526;22;20346;-68
2023/05/27 01:50:45;;;;;;;7.57;3.90;;;8.60;99.90;;;;;;6270527;22;20090;-68
2023/05/27 01:53:11;;;;;;;10.60;3.35;;;8.50;99.90;;;;;;6272081;22;20027;-69
2023/05/27 01:55:37;;;;;;;12.93;3.92;;;8.50;99.90;;;;;;6272007;22;20020;-68
2023/05/27 01:58:03;;;;;;;9.40;4.03;;;8.40;99.90;;;;;;6270321;22;20083;-68
2023/05/27 02:00:29;;;;;;;11.40;4.80;;;8.40;99.90;;;;;;6272359;22;20054;-68
2023/05/27 02:02:55;;;;;;;10.10;3.63;;;8.20;99.90;;;;;;6269879;22;20023;-69
2023/05/27 02:05:21;;;;;;;11.18;4.03;;;8.30;99.90;;;;;;6272002;22;20340;-68
2023/05/27 02:07:47;;;;;;;7.68;3.92;;;8.40;99.90;;;;;;6270371;22;20127;-68
2023/05/27 02:10:12;;;;;;;9.65;3.55;;;8.50;99.90;;;;;;6271984;22;20026;-69
2023/05/27 02:12:38;;;;;;;9.98;4.75;;;8.30;99.90;;;;;;6272102;22;20012;-68
2023/05/27 02:15:04;;;;;;;9.93;4.07;;;8.20;99.90;;;;;;6270003;22;20023;-68
2023/05/27 02:17:30;;;;;;;11.60;3.83;;;8.20;99.90;;;;;;6270598;22;20023;-68
2023/05/27 02:19:56;;;;;;;15.48;3.95;;;8.10;99.90;;;;;;6272308;22;20049;-68
2023/05/27 02:22:22;;;;;;;11.63;3.90;;;8.10;99.90;;;;;;6270323;22;20059;-68
2023/05/27 02:24:48;;;;;;;11.60;4.40;;;8.10;99.90;;;;;;6269683;22;20332;-68
2023/05/27 02:27:14;;;;;;;12.57;3.67;;;8.10;99.90;;;;;;6271781;22;20016;-68
2023/05/27 02:29:39;;;;;;;13.27;4.15;;;8.00;99.90;;;;;;6270121;22;20471;-69
2023/05/27 02:32:06;;;;;;;10.02;3.78;;;8.00;99.90;;;;;;6270316;22;20015;-68
2023/05/27 02:34:36;;;;;;;10.48;4.35;;;8.10;99.90;;;;;;6271496;22;20100;-68
2023/05/27 02:37:02;;;;;;;10.25;4.57;;;7.90;99.90;;;;;;6272108;22;20077;-68
2023/05/27 02:39:28;;;;;;;7.65;3.63;;;8.00;99.90;;;;;;6269830;22;20343;-69
2023/05/27 02:41:53;;;;;;;8.55;3.78;;;8.00;99.90;;;;;;6270183;22;20015;-69
2023/05/27 02:44:19;;;;;;;17.83;4.10;;;8.00;99.90;;;;;;6270300;22;20015;-68
2023/05/27 02:46:45;;;;;;;9.43;4.10;;;8.00;99.90;;;;;;6269951;22;20015;-69
2023/05/27 02:49:10;;;;;;;10.88;3.97;;;7.90;99.90;;;;;;6270036;22;20024;-68
2023/05/27 02:51:36;;;;;;;10.13;3.88;;;7.80;99.90;;;;;;6271769;22;20016;-69
2023/05/27 02:54:02;;;;;;;12.15;3.60;;;8.00;99.90;;;;;;6269374;22;20201;-68
2023/05/27 02:56:28;;;;;;;12.85;3.78;;;8.00;99.90;;;;;;6271596;22;20023;-68
2023/05/27 02:58:53;;;;;;;10.88;3.85;;;8.10;99.90;;;;;;6269848;22;20020;-68
2023/05/27 03:01:19;;;;;;;10.77;3.55;;;8.00;99.90;;;;;;6271984;22;20016;-68
2023/05/27 03:03:46;;;;;;;9.93;3.42;;;7.90;99.90;;;;;;6269869;22;20440;-68
2023/05/27 03:06:11;;;;;;;16.95;4.70;;;7.90;99.90;;;;;;6269997;22;20438;-68
2023/05/27 03:08:37;;;;;;;9.55;3.35;;;7.90;99.90;;;;;;6244044;22;20019;-68
2023/05/27 03:11:03;;;;;;;10.38;3.35;;;8.00;99.90;;;;;;6269591;22;20019;-67
2023/05/27 03:13:28;;;;;;;10.95;3.78;;;8.00;99.90;;;;;;6271443;22;20322;-68
2023/05/27 03:15:54;;;;;;;10.00;3.97;;;7.90;99.90;;;;;;6269543;22;20016;-68
2023/05/27 03:18:20;;;;;;;14.23;3.85;;;7.90;99.90;;;;;;6271585;22;20018;-68
2023/05/27 03:20:47;;;;;;;10.13;4.65;;;7.90;99.90;;;;;;6271341;22;20050;-68
2023/05/27 03:23:12;;;;;;;8.18;3.60;;;7.90;99.90;;;;;;6269433;22;20023;-68
2023/05/27 03:25:38;;;;;;;9.40;3.40;;;8.10;99.90;;;;;;6269395;22;20008;-68
2023/05/27 03:28:04;;;;;;;12.73;4.38;;;8.10;99.90;;;;;;6269827;22;20020;-68
2023/05/27 03:30:30;;;;;;;13.70;3.67;;;8.00;99.90;;;;;;6272046;22;20027;-68
2023/05/27 03:32:56;;;;;;;12.52;5.05;;;8.00;99.90;;;;;;6271687;22;20016;-68
2023/05/27 03:35:21;;;;;;;12.30;3.55;;;8.10;99.90;;;;;;6270845;22;20582;-68
2023/05/27 03:37:47;;;;;;;13.75;3.85;;;8.10;99.90;;;;;;6269249;22;20023;-68
2023/05/27 03:40:13;;;;;;;15.82;4.28;;;8.10;99.90;;;;;;6271280;22;20113;-68
2023/05/27 03:42:39;;;;;;;8.90;3.53;;;8.00;99.90;;;;;;6271458;22;20343;-68
2023/05/27 03:45:05;;;;;;;11.50;4.20;;;8.00;99.90;;;;;;6271134;22;20020;-68
2023/05/27 03:47:31;;;;;;;8.75;3.80;;;8.10;99.90;;;;;;6271465;22;20019;-68
2023/05/27 03:49:56;;;;;;;13.82;4.53;;;8.10;99.90;;;;;;6271572;22;20096;-68
2023/05/27 03:52:22;;;;;;;9.52;4.30;;;8.10;99.90;;;;;;6269179;22;20049;-68
2023/05/27 03:54:48;;;;;;;17.65;4.32;;;8.20;99.90;;;;;;6271128;22;20024;-68
2023/05/27 03:57:13;;;;;;;8.80;4.88;;;8.20;99.90;;;;;;6271728;22;20122;-68
2023/05/27 03:59:39;;;;;;;9.00;4.10;;;8.30;99.90;;;;;;6271710;22;20023;-68
2023/05/27 04:02:05;;;;;;;8.35;3.72;;;8.30;99.90;;;;;;6271647;22;20383;-68
2023/05/27 04:04:31;;;;;;;9.77;3.90;;;8.40;99.90;;;;;;6271546;22;20321;-70
2023/05/27 04:06:57;;;;;;;10.70;4.18;;;8.50;99.90;;;;;;6269424;22;20016;-68
2023/05/27 04:09:22;;;;;;;5.43;3.33;;;8.60;99.90;;;;;;6269398;22;20051;-68
2023/05/27 04:11:48;;;;;;;15.18;3.90;;;8.60;99.90;;;;;;6269338;22;20012;-68
2023/05/27 04:14:14;;;;;;;13.98;4.03;;;8.70;99.90;;;;;;6271024;22;20016;-68
2023/05/27 04:16:41;;;;;;;12.77;4.32;;;8.80;99.90;;;;;;6269469;22;20020;-68
2023/05/27 04:19:07;;;;;;;11.23;4.45;;;8.80;99.90;;;;;;6271419;22;20016;-68
2023/05/27 04:21:32;;;;;;;11.07;4.07;;;8.80;99.90;;;;;;6269218;22;20023;-68
2023/05/27 04:23:58;;;;;;;13.05;3.83;;;8.90;99.90;;;;;;6269292;22;20081;-68
2023/05/27 04:26:24;;;;;;;11.35;3.47;;;9.10;99.90;;;;;;6269617;22;20019;-68
2023/05/27 04:28:50;;;;;;;13.23;4.10;;;9.10;99.90;;;;;;6245868;22;20097;-68
2023/05/27 04:31:15;;;;;;;10.27;3.47;;;9.20;99.90;;;;;;6271277;22;20029;-68
2023/05/27 04:33:42;;;;;;;15.15;3.95;;;9.20;99.90;;;;;;6272762;22;20024;-68
2023/05/27 04:36:09;;;;;;;15.82;4.18;;;9.10;99.90;;;;;;6273190;22;20011;-68
2023/05/27 04:38:34;;;;;;;13.18;3.85;;;9.20;99.90;;;;;;6271214;22;20015;-68
2023/05/27 04:41:01;;;;;;;15.95;3.95;;;9.30;99.90;;;;;;6273449;22;20011;-68
2023/05/27 04:43:29;;;;;;;13.25;3.63;;;9.30;99.90;;;;;;6271264;22;20019;-68
2023/05/27 04:45:56;;;;;;;12.10;3.72;;;9.40;99.90;;;;;;6271401;22;20046;-68
2023/05/27 04:48:26;;;;;;;14.93;4.28;;;9.50;99.90;;;;;;6272880;22;20043;-68
2023/05/27 04:50:54;;;;;;;14.15;4.03;;;9.60;99.90;;;;;;6272911;22;20061;-68
2023/05/27 04:53:21;;;;;;;10.93;4.32;;;9.70;99.90;;;;;;6272253;22;20028;-68
2023/05/27 04:55:47;;;;;;;14.73;3.92;;;9.80;99.90;;;;;;6273994;22;20464;-68
2023/05/27 04:58:12;;;;;;;17.15;4.00;;;9.80;99.90;;;;;;6271472;22;20111;-68
2023/05/27 05:00:49;;;;;;;13.52;3.40;;;9.90;99.90;;;;;;6271410;22;20053;-68
2023/05/27 05:03:21;;;;;;;14.77;4.93;;;10.00;99.90;;;;;;6272566;22;20469;-68
2023/05/27 05:05:51;;;;;;;11.55;3.53;;;10.10;99.90;;;;;;6273058;22;20011;-68
2023/05/27 05:08:21;;;;;;;12.85;3.80;;;10.20;99.90;;;;;;6245343;22;20039;-68
2023/05/27 05:10:47;;;;;;;12.68;5.35;;;10.30;99.90;;;;;;6271218;22;20011;-68
2023/05/27 05:13:13;;;;;;;10.27;3.80;;;10.60;99.90;;;;;;6272975;22;20008;-68
2023/05/27 05:15:40;;;;;;;15.38;3.92;;;10.60;99.90;;;;;;6272631;22;20012;-68
2023/05/27 05:18:06;;;;;;;9.40;3.40;;;10.70;99.90;;;;;;6272409;22;20011;-68
2023/05/27 05:20:31;;;;;;;14.40;3.83;;;10.80;99.90;;;;;;6272969;22;20103;-68
2023/05/27 05:22:58;;;;;;;10.43;3.10;;;11.00;99.90;;;;;;6271279;22;20051;-68
2023/05/27 05:25:24;;;;;;;11.43;3.85;;;11.00;99.90;;;;;;6271249;22;20085;-68
2023/05/27 05:27:51;;;;;;;19.23;6.13;;;11.10;99.90;;;;;;6273014;22;20071;-68
2023/05/27 05:30:17;;;;;;;16.25;4.45;;;11.10;99.90;;;;;;6270792;22;20342;-68
2023/05/27 05:32:43;;;;;;;12.52;4.03;;;11.30;99.90;;;;;;6245132;22;20012;-68
2023/05/27 05:35:09;;;;;;;16.90;3.95;;;11.30;99.90;;;;;;6272438;22;20036;-68
2023/05/27 05:37:34;;;;;;;19.33;4.90;;;11.40;99.90;;;;;;6272679;22;20023;-68
2023/05/27 05:40:00;;;;;;;11.13;3.88;;;11.50;99.90;;;;;;6245420;22;20027;-68
2023/05/27 05:42:26;;;;;;;9.63;3.40;;;11.60;99.90;;;;;;6272577;22;20015;-68
2023/05/27 05:44:52;;;;;;;16.75;3.67;;;11.70;99.90;;;;;;6272703;22;20020;-68
2023/05/27 05:47:18;;;;;;;16.20;4.70;;;11.70;99.90;;;;;;6270735;22;20054;-68
2023/05/27 05:49:44;;;;;;;13.40;4.47;;;11.80;99.90;;;;;;6272376;22;20376;-68
2023/05/27 05:52:10;;;;;;;11.35;3.63;;;11.80;99.90;;;;;;6270537;22;20114;-68
2023/05/27 05:54:36;;;;;;;13.60;4.03;;;11.80;99.90;;;;;;6272068;22;20100;-68
2023/05/27 05:57:05;;;;;;;13.90;4.65;;;11.90;99.90;;;;;;6270637;22;20051;-68
2023/05/27 05:59:31;;;;;;;15.45;3.97;;;11.90;99.90;;;;;;6270309;22;20011;-68
2023/05/27 06:01:57;;;;;;;18.90;4.28;;;12.00;99.90;;;;;;6269701;22;20023;-68
2023/05/27 06:04:23;;;;;;;16.20;3.95;;;12.10;99.90;;;;;;6272444;22;20020;-68
2023/05/27 06:06:49;;;;;;;15.45;3.78;;;12.30;99.90;;;;;;6270415;22;20095;-68
2023/05/27 06:09:15;;;;;;;11.43;3.22;;;12.20;99.90;;;;;;6272178;22;20027;-68
2023/05/27 06:11:40;;;;;;;11.30;3.08;;;12.30;99.90;;;;;;6272477;22;20016;-68
2023/05/27 06:14:07;;;;;;;10.20;3.60;;;12.30;99.90;;;;;;6272261;22;20090;-68
2023/05/27 06:16:35;;;;;;;14.38;4.07;;;12.30;99.90;;;;;;6270182;22;20015;-68
2023/05/27 06:19:02;;;;;;;14.48;3.83;;;12.40;99.90;;;;;;6272056;22;20042;-68
2023/05/27 06:21:29;;;;;;;17.98;4.53;;;12.30;99.90;;;;;;6270335;22;20416;-68
2023/05/27 06:23:55;;;;;;;12.30;4.03;;;12.30;99.90;;;;;;6272154;22;20016;-68
2023/05/27 06:26:22;;;;;;;14.90;3.65;;;12.20;99.90;;;;;;6272196;22;20008;-67
2023/05/27 06:28:47;;;;;;;16.90;4.53;;;12.10;99.90;;;;;;6272058;22;20020;-68
2023/05/27 06:31:13;;;;;;;21.10;4.05;;;12.10;99.90;;;;;;6270133;22;20368;-68
2023/05/27 06:33:41;;;;;;;13.77;3.85;;;12.10;99.90;;;;;;6271798;22;20019;-68
2023/05/27 06:36:07;;;;;;;19.70;5.68;;;12.20;99.90;;;;;;6271938;22;20520;-68
2023/05/27 06:38:33;;;;;;;17.48;4.65;;;12.30;99.90;;;;;;6270541;22;20082;-68
2023/05/27 06:40:59;;;;;;;14.07;4.38;;;12.40;99.90;;;;;;6270306;22;20027;-67
2023/05/27 06:43:24;;;;;;;13.10;3.90;;;12.50;99.90;;;;;;6271665;22;20015;-68
2023/05/27 06:45:50;;;;;;;12.05;3.88;;;12.60;99.90;;;;;;6269904;22;20054;-68
2023/05/27 06:48:16;;;;;;;15.40;3.17;;;12.70;99.90;;;;;;6270063;22;20333;-68
2023/05/27 06:50:41;;;;;;;17.05;3.83;;;12.80;99.90;;;;;;6269745;22;20016;-68
2023/05/27 06:53:07;;;;;;;16.33;5.35;;;12.90;99.90;;;;;;6269662;22;20055;-67
2023/05/27 06:55:33;;;;;;;13.32;4.45;;;12.90;99.90;;;;;;6269935;22;20015;-68
2023/05/27 06:57:59;;;;;;;13.50;3.28;;;13.00;99.90;;;;;;6272012;22;20022;-68
2023/05/27 07:00:25;;;;;;;14.35;3.45;;;13.00;99.90;;;;;;6269644;22;20340;-68
2023/05/27 07:02:51;;;;;;;13.00;3.75;;;13.00;99.90;;;;;;6269745;22;20538;-68
2023/05/27 07:05:17;;;;;;;13.02;3.85;;;12.80;99.90;;;;;;6269922;22;20029;-67
2023/05/27 07:07:43;;;;;;;15.35;4.18;;;12.70;99.90;;;;;;6271563;22;20043;-68
2023/05/27 07:10:08;;;;;;;11.73;4.00;;;12.70;99.90;;;;;;6270717;22;20081;-68
2023/05/27 07:12:34;;;;;;;13.40;3.55;;;12.70;99.90;;;;;;6270860;22;20071;-68
2023/05/27 07:15:00;;;;;;;13.82;3.40;;;12.70;99.90;;;;;;6271036;22;20024;-68
2023/05/27 07:17:26;;;;;;;15.55;4.10;;;12.60;99.90;;;;;;6269514;22;20020;-68
2023/05/27 07:19:51;;;;;;;13.40;3.80;;;12.60;99.90;;;;;;6269922;22;20016;-68
2023/05/27 07:22:17;;;;;;;16.80;3.92;;;12.80;99.90;;;;;;6269669;22;20019;-68
2023/05/27 07:24:43;;;;;;;13.43;3.88;;;12.90;99.90;;;;;;6271356;22;20019;-68
2023/05/27 07:27:09;;;;;;;19.23;3.70;;;13.00;99.90;;;;;;6270890;22;20585;-68
2023/05/27 07:29:35;;;;;;;17.73;4.00;;;13.20;99.90;;;;;;6267931;22;20050;-67
2023/05/27 07:32:10;;;;;;;16.58;4.60;;;13.30;99.90;;;;;;6224363;22;20028;-67
2023/05/27 07:34:36;;;;;;;17.38;4.53;;;13.40;99.90;;;;;;6218862;23;20032;-66
2023/05/27 07:37:01;;;;;;;18.05;4.47;;;13.40;99.90;;;;;;6220862;23;20059;-65
2023/05/27 07:39:27;;;;;;;18.77;4.07;;;13.60;99.90;;;;;;6220360;23;20401;-66
2023/05/27 07:41:53;;;;;;;14.35;3.40;;;13.70;99.90;;;;;;6219418;23;20013;-66
2023/05/27 07:44:19;;;;;;;13.02;4.80;;;13.70;99.90;;;;;;6220930;23;20043;-66
2023/05/27 07:46:44;;;;;;;16.75;4.47;;;13.80;99.90;;;;;;6219002;23;20047;-66
2023/05/27 07:49:10;;;;;;;16.75;4.70;;;13.80;99.90;;;;;;6221558;23;20024;-66
2023/05/27 07:51:36;;;;;;;13.25;4.65;;;13.90;99.90;;;;;;6219357;23;20024;-66
2023/05/27 07:54:02;;;;;;;13.90;3.80;;;14.00;99.90;;;;;;6221655;23;20862;-66
2023/05/27 07:56:28;;;;;;;12.98;3.72;;;14.00;99.90;;;;;;6218630;23;20044;-67
2023/05/27 07:58:54;;;;;;;22.33;3.92;;;14.10;99.90;;;;;;6220411;23;20556;-67
2023/05/27 08:01:19;;;;;;;13.48;4.28;;;14.20;99.90;;;;;;6221727;23;20016;-67
2023/05/27 08:03:45;;;;;;;11.60;3.92;;;14.30;99.90;;;;;;6221203;23;20051;-67
2023/05/27 08:06:11;;;;;;;13.20;4.10;;;14.50;99.90;;;;;;6223315;23;20024;-66
2023/05/27 08:08:36;;;;;;;10.30;3.42;;;14.50;99.90;;;;;;6221111;23;20706;-66
2023/05/27 08:11:02;;;;;;;18.60;3.63;;;14.50;99.90;;;;;;6223171;23;20020;-66
2023/05/27 08:13:28;;;;;;;28.20;5.97;;;14.70;99.90;;;;;;6221907;23;20016;-66
2023/05/27 08:15:53;;;;;;;10.32;3.30;;;14.70;99.90;;;;;;6222541;23;20353;-66
2023/05/27 08:18:19;;;;;;;13.40;4.43;;;15.00;99.90;;;;;;6223395;23;20028;-66
2023/05/27 08:20:45;;;;;;;14.60;3.38;;;15.00;99.90;;;;;;6220682;23;20051;-66
2023/05/27 08:23:11;;;;;;;15.38;3.58;;;14.80;99.90;;;;;;6223569;23;20023;-66
2023/05/27 08:25:37;;;;;;;12.82;3.30;;;14.90;99.90;;;;;;6218718;23;20025;-66
2023/05/27 08:28:03;;;;;;;10.65;3.40;;;14.90;99.90;;;;;;6223197;23;20043;-66
2023/05/27 08:30:29;;;;;;;13.15;3.88;;;15.00;99.90;;;;;;6220238;23;20076;-66
2023/05/27 08:32:56;;;;;;;14.75;4.53;;;15.00;99.90;;;;;;6252471;23;20020;-66
2023/05/27 08:35:21;;;;;;;16.75;3.88;;;15.20;99.90;;;;;;6253593;23;20028;-66
2023/05/27 08:37:48;;;;;;;16.02;5.35;;;15.30;99.90;;;;;;6251301;23;20023;-66
2023/05/27 08:40:15;;;;;;;10.48;3.97;;;15.30;99.90;;;;;;6253159;23;20048;-66
2023/05/27 08:42:41;;;;;;;12.98;4.03;;;15.30;99.90;;;;;;6251221;23;20016;-66
2023/05/27 08:45:10;;;;;;;19.95;4.63;;;15.40;99.90;;;;;;6253546;23;20016;-66
2023/05/27 08:47:38;;;;;;;11.18;3.45;;;15.50;99.90;;;;;;6251993;23;20020;-66
2023/05/27 08:50:04;;;;;;;19.90;3.88;;;15.40;99.90;;;;;;6225815;23;20035;-66
2023/05/27 08:52:30;;;;;;;15.07;4.60;;;15.60;99.90;;;;;;6253319;23;20341;-66
2023/05/27 08:54:57;;;;;;;13.95;4.28;;;15.70;99.90;;;;;;6251173;23;20034;-66
2023/05/27 08:57:28;;;;;;;14.10;4.07;;;15.80;99.90;;;;;;6253730;23;20091;-66
2023/05/27 08:59:55;;;;;;;12.85;4.05;;;15.80;99.90;;;;;;6251494;23;20066;-66
2023/05/27 09:02:21;;;;;;;9.18;3.53;;;16.00;99.90;;;;;;6253656;23;20022;-66
2023/05/27 09:04:48;;;;;;;13.52;3.75;;;16.00;99.90;;;;;;6252295;23;20051;-66
2023/05/27 09:07:14;;;;;;;12.82;3.88;;;16.00;99.90;;;;;;6252461;23;20563;-65
2023/05/27 09:09:40;;;;;;;12.30;4.65;;;16.10;99.90;;;;;;6253155;23;20020;-66
2023/05/27 09:12:08;;;;;;;11.35;3.22;;;16.00;99.90;;;;;;6251203;23;20016;-66
2023/05/27 09:14:37;;;;;;;14.15;3.97;;;16.10;99.90;;;;;;6253389;23;20074;-66
2023/05/27 09:17:08;;;;;;;13.38;4.00;;;16.20;99.90;;;;;;6224615;23;20457;-65
2023/05/27 09:19:34;;;;;;;10.93;3.72;;;16.20;99.90;;;;;;6253836;23;20016;-66
2023/05/27 09:22:00;;;;;;;15.02;4.10;;;16.30;99.90;;;;;;6252749;23;20023;-66
2023/05/27 09:24:26;;;;;;;17.48;3.50;;;16.40;99.90;;;;;;6251152;23;20122;-66
2023/05/27 09:26:55;;;;;;;14.38;4.18;;;16.30;99.90;;;;;;6226343;23;20024;-66
2023/05/27 09:29:28;;;;;;;14.48;5.53;;;16.50;99.90;;;;;;6251361;23;20031;-66
2023/05/27 09:31:57;;;;;;;;;;;16.50;99.90;;;;;;6253944;23;20020;-66
2023/05/27 09:34:22;;;;;;;11.82;3.70;;;16.50;99.90;;;;;;6250828;23;19919;-66
2023/05/27 09:36:50;;;;;;;17.08;4.32;;;16.40;99.90;;;;;;6226182;23;20046;-66
2023/05/27 09:39:18;;;;;;;11.95;3.58;;;16.60;99.90;;;;;;6251891;23;20012;-64
2023/05/27 09:41:49;;;;;;;18.50;4.22;;;16.60;99.90;;;;;;6224598;23;20030;-63
2023/05/27 09:44:15;;;;;;;12.90;4.57;;;16.60;99.90;;;;;;6252982;23;20028;-63
2023/05/27 09:46:44;;;;;;;9.77;3.85;;;16.60;99.90;;;;;;6249008;23;20016;-64
2023/05/27 09:49:10;;;;;;;23.75;4.25;;;16.50;99.90;;;;;;6253164;23;20063;-64
2023/05/27 09:51:39;;;;;;;18.08;4.35;;;16.70;99.90;;;;;;6251200;23;20755;-64
2023/05/27 09:54:06;;;;;;;14.80;4.05;;;16.80;99.90;;;;;;6252425;23;20031;-64
2023/05/27 09:56:33;;;;;;;15.38;3.97;;;16.90;99.90;;;;;;6252392;23;20023;-64
2023/05/27 09:59:00;;;;;;;18.15;4.40;;;16.70;99.90;;;;;;6250933;23;20325;-64
2023/05/27 10:01:28;;;;;;;16.52;4.22;;;16.80;99.90;;;;;;6251925;23;20031;-63
2023/05/27 10:03:56;;;;;;;14.50;4.03;;;17.00;99.90;;;;;;6250544;23;20024;-67
2023/05/27 10:06:29;;;;;;;13.85;3.85;;;17.00;99.90;;;;;;6252968;23;20044;-63
2023/05/27 10:08:55;;;;;;;14.18;4.00;;;17.10;99.90;;;;;;6250928;23;20192;-64
2023/05/27 10:11:21;;;;;;;11.50;3.92;;;17.10;99.90;;;;;;6252438;23;20024;-63
2023/05/27 10:13:48;;;;;;;11.90;4.35;;;17.20;99.90;;;;;;6252065;23;20020;-63
2023/05/27 10:16:25;;;;;;;14.10;5.82;;;17.20;99.90;;;;;;6250985;23;20023;-63
2023/05/27 10:18:56;;;;;;;18.30;4.88;;;17.20;99.90;;;;;;6252826;23;20024;-63
2023/05/27 10:21:28;;;;;;;15.00;3.92;;;17.20;99.90;;;;;;6250445;23;20016;-63
2023/05/27 10:23:57;;;;;;;12.75;3.92;;;17.30;99.90;;;;;;6251733;23;20043;-64
2023/05/27 10:26:40;;;;;;;15.15;4.13;;;17.30;99.90;;;;;;6251489;23;20028;-64
2023/05/27 10:29:17;;;;;;;12.25;4.07;;;17.50;99.90;;;;;;6248843;23;20068;-64
2023/05/27 10:31:49;;;;;;;10.10;4.10;;;17.50;99.90;;;;;;6250477;23;20023;-63
2023/05/27 10:34:15;;;;;;;15.85;4.13;;;17.40;99.90;;;;;;6249750;23;20028;-64
2023/05/27 10:36:42;;;;;;;15.75;3.80;;;17.50;99.90;;;;;;6252278;23;20027;-64
2023/05/27 10:39:18;;;;;;;9.70;4.15;;;17.50;99.90;;;;;;6251147;23;20027;-63
2023/05/27 10:41:50;;;;;;;15.95;4.05;;;17.50;99.90;;;;;;6251436;23;20391;-63
2023/05/27 10:44:35;;;;;;;13.70;4.53;;;17.60;99.90;;;;;;6252754;23;20024;-64
2023/05/27 10:47:13;;;;;;;15.63;4.70;;;17.60;99.90;;;;;;6250517;23;20024;-63
2023/05/27 10:49:40;;;;;;;15.95;5.03;;;17.70;99.90;;;;;;6225333;23;20387;-64
2023/05/27 10:52:12;;;;;;;12.80;4.55;;;17.70;99.90;;;;;;6251122;23;20020;-63
2023/05/27 10:54:38;;;;;;;16.70;4.20;;;17.70;99.90;;;;;;6250522;23;20094;-64
2023/05/27 10:57:04;;;;;;;14.13;4.25;;;17.70;99.90;;;;;;6251995;23;20031;-65
2023/05/27 10:59:39;;;;;;;13.82;4.05;;;17.70;99.90;;;;;;6249949;23;20024;-64
2023/05/27 11:02:05;;;;;;;8.73;3.75;;;17.80;99.90;;;;;;6252394;23;20051;-64
2023/05/27 11:04:36;;;;;;;10.32;4.15;;;17.80;99.90;;;;;;6250496;23;20024;-64
2023/05/27 11:07:03;;;;;;;16.88;4.28;;;17.80;99.90;;;;;;6224590;23;20050;-64
2023/05/27 11:09:29;;;;;;;10.88;4.03;;;17.90;99.90;;;;;;6252156;23;20061;-64
2023/05/27 11:12:02;;;;;;;16.80;4.35;;;17.90;99.90;;;;;;6250867;23;20015;-64
2023/05/27 11:14:28;;;;;;;9.77;4.07;;;17.90;99.90;;;;;;6252726;23;20070;-64
2023/05/27 11:16:53;;;;;;;18.17;4.68;;;18.00;99.90;;;;;;6250470;23;20016;-64
2023/05/27 11:19:21;;;;;;;14.32;3.75;;;18.00;99.90;;;;;;6225600;23;20658;-64
2023/05/27 11:21:47;;;;;;;14.52;3.92;;;18.10;99.90;;;;;;6250620;23;20016;-64
2023/05/27 11:24:17;;;;;;;10.10;3.83;;;18.20;99.90;;;;;;6251254;23;20024;-62
2023/05/27 11:26:47;;;;;;;17.08;4.03;;;18.40;99.90;;;;;;6250826;23;20582;-65
2023/05/27 11:29:14;;;;;;;23.80;4.90;;;18.50;99.90;;;;;;6249877;23;20131;-64
2023/05/27 11:31:41;;;;;;;18.35;4.07;;;18.30;99.90;;;;;;6252099;23;20020;-63
2023/05/27 11:34:13;;;;;;;13.98;4.32;;;18.40;99.90;;;;;;6249889;23;20059;-63
2023/05/27 11:36:40;;;;;;;12.55;3.85;;;18.40;99.90;;;;;;6252281;23;20044;-64
2023/05/27 11:39:09;;;;;;;13.40;3.83;;;18.40;99.90;;;;;;6251032;23;20687;-63
2023/05/27 11:41:35;;;;;;;11.85;4.05;;;18.40;99.90;;;;;;6250949;23;20020;-63
2023/05/27 11:44:05;;;;;;;12.20;3.88;;;18.40;99.90;;;;;;6251357;23;20067;-63
2023/05/27 11:46:42;;;;;;;13.05;3.50;;;18.50;99.90;;;;;;6249425;23;20019;-63
2023/05/27 11:49:10;;;;;;;11.25;3.72;;;18.70;99.90;;;;;;6224502;23;20023;-63
2023/05/27 11:51:49;;;;;;;15.15;4.80;;;18.80;99.90;;;;;;6248745;23;20016;-65
2023/05/27 11:54:23;;;;;;;12.38;3.58;;;18.80;99.90;;;;;;6251210;23;20016;-63
2023/05/27 11:56:50;;;;;;;15.13;4.93;;;18.80;99.90;;;;;;6251987;23;20034;-63
2023/05/27 11:59:16;;;;;;;12.40;3.95;;;19.00;99.90;;;;;;6249987;23;20016;-66
2023/05/27 12:01:43;;;;;;;12.35;3.63;;;18.90;99.90;;;;;;6252166;23;20024;-63
2023/05/27 12:04:09;;;;;;;13.32;3.85;;;18.80;99.90;;;;;;6249763;23;20078;-63
2023/05/27 12:06:37;;;;;;;9.57;3.50;;;18.90;99.90;;;;;;6252263;23;20024;-64
2023/05/27 12:09:04;;;;;;;12.63;3.90;;;18.90;99.90;;;;;;6224011;23;20048;-64
2023/05/27 12:11:30;;;;;;;13.55;3.90;;;19.00;99.90;;;;;;6251817;23;20020;-64
2023/05/27 12:13:55;;;;;;;12.43;3.72;;;19.00;99.90;;;;;;6252652;23;20024;-64
2023/05/27 12:16:21;;;;;;;10.00;3.83;;;19.10;99.90;;;;;;6250683;23;20031;-64
2023/05/27 12:18:47;;;;;;;10.82;3.33;;;19.30;99.90;;;;;;6225000;23;20020;-64
2023/05/27 12:21:14;;;;;;;11.68;3.17;;;19.30;99.90;;;;;;6223220;23;20032;-64
2023/05/27 12:23:40;;;;;;;10.85;3.63;;;19.30;99.90;;;;;;6252337;23;20346;-64
2023/05/27 12:26:06;;;;;;;9.40;4.07;;;19.30;99.90;;;;;;6250639;23;20024;-64
2023/05/27 12:28:32;;;;;;;14.02;3.90;;;19.50;99.90;;;;;;6224657;23;20027;-65
2023/05/27 12:30:57;;;;;;;9.10;3.30;;;19.50;99.90;;;;;;6251893;23;20453;-64
2023/05/27 12:33:23;;;;;;;14.60;4.18;;;19.40;99.90;;;;;;6249818;23;20024;-63
2023/05/27 12:35:49;;;;;;;18.08;4.82;;;19.50;99.90;;;;;;6251933;23;20095;-63
2023/05/27 12:38:15;;;;;;;12.98;4.50;;;19.60;99.90;;;;;;6222717;23;20047;-63
2023/05/27 12:40:40;;;;;;;11.05;3.88;;;19.40;99.90;;;;;;6252056;23;20024;-63
2023/05/27 12:43:06;;;;;;;11.95;3.63;;;19.50;99.90;;;;;;6250195;23;20024;-64